Latest Weather Observations for Archerfield

IDQ60801

Issued at 6:05 am EST Saturday 22 November 2014 (issued every 30 minutes, with the page automatically refreshed every 10 minutes)

About weather observations | Map of weather stations | Latest weather observations for QLD | Other Formats
Station Details ID: 040211 Name: ARCHERFIELD AIRPORT Lat: -27.57 Lon: 153.01 Height: 12.5 m
Data from the previous 72 hours. | See also: Recent months at Archerfield
Date/Time
EST
Temp
°C
App
Temp
°C
Dew
Point
Rel
Hum
%
Delta-T
°C
Wind Press
QNH
hPa
Press
MSL
hPa
Rain
since 9 am
mm
Dir
 
Spd
km/h
Gust
km/h
Spd
kts
Gust
kts
22/06:00am 24.9 25.8 20.8 78 2.7 N 17 20 9 11 1014.2 1014.1 0.0
22/05:30am 24.1 25.7 20.8 82 2.2 N 13 19 7 10 1014.0 1013.9 0.0
22/05:00am 23.9 24.6 20.4 81 2.3 N 17 20 9 11 1013.7 1013.6 0.0
22/04:30am 24.1 24.8 20.4 80 2.4 N 17 20 9 11 1013.1 1013.0 0.0
22/04:00am 24.2 24.8 20.3 79 2.5 N 17 20 9 11 1012.7 1012.6 0.0
22/03:30am 24.2 25.2 20.3 79 2.5 N 15 19 8 10 1012.3 1012.2 0.0
22/03:00am 24.2 25.6 20.3 79 2.5 NNE 13 20 7 11 1012.2 1012.1 0.0
22/02:30am 24.3 25.7 20.4 79 2.5 N 13 19 7 10 1012.0 1011.9 0.0
22/02:00am 24.6 25.6 20.3 77 2.8 NNW 15 24 8 13 1011.8 1011.7 0.0
22/01:30am 24.6 24.8 20.5 78 2.7 N 20 28 11 15 1011.5 1011.4 0.0
22/01:00am 24.8 26.1 20.9 79 2.6 N 15 22 8 12 1011.6 1011.5 0.0
22/12:30am 24.8 25.8 21.1 80 2.4 N 17 22 9 12 1012.1 1012.0 0.0
22/12:00am 24.9 25.5 21.4 81 2.3 N 20 26 11 14 1012.4 1012.3 0.0
 
Date/Time
EST
Temp
°C
App
Temp
°C
Dew
Point
Rel
Hum
%
Delta-T
°C
Wind Press
QNH
hPa
Press
MSL
hPa
Rain
since 9 am
mm
Dir
 
Spd
km/h
Gust
km/h
Spd
kts
Gust
kts
21/11:30pm 25.3 26.0 21.6 80 2.5 N 20 30 11 16 1012.3 1012.2 0.0
21/11:00pm 25.2 26.5 21.7 81 2.3 N 17 26 9 14 1012.9 1012.8 0.0
21/10:30pm 25.3 26.1 21.8 81 2.3 N 20 26 11 14 1013.2 1013.1 0.0
21/10:00pm 25.5 27.7 21.8 80 2.5 N 13 24 7 13 1013.5 1013.4 0.0
21/09:30pm 25.5 26.4 22.0 81 2.3 N 20 30 11 16 1013.3 1013.2 0.0
21/09:00pm 25.5 26.4 22.0 81 2.3 NNE 20 28 11 15 1013.1 1013.0 0.0
21/08:30pm 25.5 25.3 22.0 81 2.3 N 26 35 14 19 1012.5 1012.4 0.0
21/08:00pm 25.4 25.1 21.9 81 2.3 NNE 26 37 14 20 1011.8 1011.7 0.0
21/07:30pm 25.4 25.9 21.9 81 2.3 NNE 22 28 12 15 1012.3 1012.2 0.0
21/07:00pm 25.6 25.7 21.9 80 2.5 N 24 30 13 16 1011.8 1011.7 0.0
21/06:30pm 25.8 25.4 21.7 78 2.7 N 26 37 14 20 1011.6 1011.5 0.0
21/06:00pm 26.2 24.7 21.8 77 2.9 NNE 32 44 17 24 1011.3 1011.2 0.0
21/05:30pm 26.6 25.2 22.0 76 3.1 NNE 32 43 17 23 1010.8 1010.7 0.0
21/05:00pm 26.8 24.5 21.3 72 3.7 NNE 35 50 19 27 1010.6 1010.5 0.0
21/04:30pm 27.6 24.7 21.6 70 4.0 NNE 39 48 21 26 1010.4 1010.3 0.0
21/04:00pm 28.6 26.7 22.1 68 4.4 NNE 35 46 19 25 1010.7 1010.6 0.0
21/03:30pm 28.8 27.0 21.6 65 4.8 N 33 43 18 23 1010.9 1010.8 0.0
21/03:00pm 29.4 28.0 21.9 64 5.1 N 32 43 17 23 1010.9 1010.8 0.0
21/02:30pm 29.5 27.7 21.2 61 5.5 NNE 32 44 17 24 1011.1 1011.0 0.0
21/02:00pm 29.2 28.1 21.7 64 5.0 NNE 30 39 16 21 1011.5 1011.4 0.0
21/01:30pm 30.6 30.0 22.7 62 5.4 NNE 30 39 16 21 1011.9 1011.8 0.0
21/01:00pm 30.0 28.9 21.7 61 5.6 NNE 30 39 16 21 1012.1 1012.0 0.0
21/12:30pm 30.5 29.8 21.8 59 5.9 N 28 33 15 18 1012.8 1012.7 0.0
21/12:00pm 30.1 29.3 21.7 60 5.7 NNE 28 35 15 19 1013.3 1013.2 0.0
21/11:30am 30.3 29.4 21.4 59 6.0 NNE 28 37 15 20 1013.7 1013.6 0.0
21/11:00am 30.2 29.8 21.0 58 6.1 NNE 24 32 13 17 1014.1 1014.0 0.0
21/10:30am 29.4 28.9 20.0 57 6.2 NNE 22 30 12 16 1014.4 1014.3 0.0
21/10:00am 30.3 30.9 20.2 54 6.7 N 17 24 9 13 1014.9 1014.8 0.0
21/09:30am 28.6 29.0 19.8 59 5.7 NNW 17 24 9 13 1015.3 1015.2 0.0
21/09:00am 28.7 28.6 19.9 59 5.8 N 20 28 11 15 1015.5 1015.4 0.0
21/08:30am 27.2 27.2 19.8 64 4.8 NNW 19 26 10 14 1015.8 1015.7 0.0
21/08:00am 26.9 26.2 20.3 67 4.3 N 24 32 13 17 1015.8 1015.7 0.0
21/07:33am 26.3 27.1 21.7 76 3.1 N 20 26 11 14 1015.9 1015.8 0.0
21/07:30am 25.6 26.7 21.9 80 2.5 N 19 24 10 13 1016.0 1015.9 0.0
21/07:00am 25.2 26.1 21.5 80 2.5 N 19 22 10 12 1016.0 1015.9 0.0
21/06:48am 24.4 24.9 21.1 82 2.2 N 20 28 11 15 1016.0 1015.9 0.0
21/06:30am 24.5 26.3 21.2 82 2.2 N 13 15 7 8 1015.8 1015.7 0.0
21/06:00am 23.7 25.9 21.2 86 1.6 N 11 15 6 8 1015.6 1015.5 0.0
21/05:30am 23.0 24.7 20.9 88 1.4 N 13 19 7 10 1015.1 1015.0 0.0
21/05:00am 22.8 23.8 21.1 90 1.1 N 17 22 9 12 1015.2 1015.1 0.0
21/04:30am 22.3 24.2 20.6 90 1.1 N 11 15 6 8 1014.8 1014.7 0.0
21/04:00am 22.5 24.0 20.6 89 1.2 N 13 19 7 10 1014.6 1014.5 0.0
21/03:30am 22.8 24.3 20.5 87 1.5 N 13 19 7 10 1014.6 1014.5 0.0
21/03:00am 23.1 24.6 20.6 86 1.6 N 13 17 7 9 1014.5 1014.4 0.0
21/02:30am 23.6 24.9 20.9 85 1.8 NNW 15 19 8 10 1014.8 1014.7 0.0
21/02:00am 23.5 24.9 21.0 86 1.6 NNW 15 19 8 10 1014.9 1014.8 0.0
21/01:30am 24.0 25.5 21.3 85 1.8 NNW 15 19 8 10 1014.8 1014.7 0.0
21/01:00am 23.9 26.4 21.0 84 1.9 N 9 15 5 8 1014.9 1014.8 0.0
21/12:30am 23.7 25.7 20.8 84 1.9 N 11 17 6 9 1015.3 1015.2 0.0
21/12:00am 23.7 24.5 20.6 83 2.0 N 17 24 9 13 1015.6 1015.5 0.0
 
Date/Time
EST
Temp
°C
App
Temp
°C
Dew
Point
Rel
Hum
%
Delta-T
°C
Wind Press
QNH
hPa
Press
MSL
hPa
Rain
since 9 am
mm
Dir
 
Spd
km/h
Gust
km/h
Spd
kts
Gust
kts
20/11:30pm 24.3 24.2 20.8 81 2.3 N 22 28 12 15 1016.0 1015.9 0.0
20/11:00pm 24.3 23.7 20.6 80 2.4 N 24 32 13 17 1016.4 1016.3 0.0
20/10:30pm 24.1 24.2 20.4 80 2.4 N 20 28 11 15 1016.6 1016.5 0.0
20/10:00pm 24.5 24.4 20.8 80 2.4 N 22 30 12 16 1016.6 1016.5 0.0
20/09:30pm 24.5 24.0 20.8 80 2.4 N 24 33 13 18 1016.5 1016.4 0.0
20/09:00pm 24.5 23.7 20.8 80 2.4 N 26 33 14 18 1016.5 1016.4 0.0
20/08:30pm 24.4 24.4 20.9 81 2.3 N 22 28 12 15 1015.9 1015.8 0.0
20/08:00pm 24.5 24.0 20.8 80 2.4 N 24 33 13 18 1015.6 1015.5 0.0
20/07:30pm 24.4 24.0 20.9 81 2.3 N 24 35 13 19 1015.5 1015.4 0.0
20/07:00pm 24.5 23.7 20.8 80 2.4 NNE 26 35 14 19 1015.3 1015.2 0.0
20/06:30pm 24.7 22.6 20.6 78 2.7 N 32 41 17 22 1014.9 1014.8 0.0
20/06:00pm 25.1 23.1 20.8 77 2.8 NNE 32 41 17 22 1014.6 1014.5 0.0
20/05:30pm 25.6 23.7 20.2 72 3.5 NNE 30 43 16 23 1014.4 1014.3 0.0
20/05:00pm 26.3 23.5 19.4 66 4.4 NNE 33 43 18 23 1014.1 1014.0 0.0
20/04:30pm 27.3 24.7 19.9 64 4.8 N 33 43 18 23 1013.9 1013.8 0.0
20/04:00pm 27.7 25.2 19.8 62 5.1 N 32 43 17 23 1014.0 1013.9 0.0
20/03:30pm 28.5 27.1 20.5 62 5.3 N 28 39 15 21 1014.1 1014.0 0.0
20/03:00pm 26.9 25.5 20.5 68 4.2 NE 28 37 15 20 1014.4 1014.3 0.0
20/02:30pm 27.2 24.8 20.0 64 4.7 NNE 32 39 17 21 1014.5 1014.4 0.0
20/02:00pm 28.0 26.4 20.0 61 5.2 NNE 28 39 15 21 1014.9 1014.8 0.0
20/01:30pm 29.8 29.7 21.5 61 5.6 NNE 24 33 13 18 1015.2 1015.1 0.0
20/01:00pm 28.9 28.6 20.4 60 5.6 NNE 22 39 12 21 1015.4 1015.3 0.0
20/12:30pm 27.9 27.5 20.2 63 5.0 NNE 22 33 12 18 1015.9 1015.8 0.0
20/12:00pm 28.2 27.6 20.5 63 5.1 NNE 24 32 13 17 1016.2 1016.1 0.0
20/11:30am 27.6 26.5 18.6 58 5.8 NNE 22 32 12 17 1016.8 1016.7 0.0
20/11:00am 28.3 28.3 19.0 57 6.0 NE 17 24 9 13 1017.4 1017.3 0.0
20/10:30am 26.4 26.4 18.0 60 5.3 N 15 24 8 13 1017.9 1017.8 0.0
20/10:00am 27.0 26.6 18.8 60 5.2 N 19 28 10 15 1018.2 1018.1 0.0
20/09:30am 26.8 27.0 19.4 64 4.8 NNE 17 24 9 13 1018.4 1018.3 0.0
20/09:00am 26.0 26.3 18.7 64 4.6 N 15 26 8 14 1018.2 1018.1 -
20/08:30am 25.6 25.0 17.5 61 5.1 N 17 30 9 16 1018.2 1018.1 87.8
20/08:00am 25.2 25.6 19.1 69 3.9 NNE 15 22 8 12 1018.1 1018.0 87.8
20/07:30am 24.1 25.4 18.5 71 3.5 NE 9 17 5 9 1018.0 1017.9 87.8
20/07:00am 23.1 26.4 19.1 78 2.5 CALM 0 7 0 4 1018.4 1018.3 87.8
20/06:30am 21.7 25.0 19.1 85 1.6 CALM 0 0 0 0 1018.1 1018.0 87.8
20/06:00am 20.9 24.1 18.8 88 1.3 CALM 0 0 0 0 1017.7 1017.6 87.8
20/05:30am 20.5 23.0 19.0 91 0.9 SE 4 7 2 4 1017.5 1017.4 87.8
20/05:00am 19.5 21.2 18.5 94 0.6 ESE 7 11 4 6 1017.0 1016.9 87.8
20/04:30am 19.2 21.0 18.2 94 0.6 ESE 6 6 3 3 1016.6 1016.5 87.8
20/04:00am 19.3 21.1 18.3 94 0.6 SSE 6 7 3 4 1016.4 1016.3 87.8
20/03:30am 19.4 20.7 18.4 94 0.6 SSE 9 9 5 5 1016.1 1016.0 87.8
20/03:00am 19.6 21.5 18.6 94 0.6 S 6 9 3 5 1016.0 1015.9 87.8
20/02:30am 19.9 22.6 18.7 93 0.7 SSW 2 6 1 3 1015.9 1015.8 87.8
20/02:00am 20.1 22.9 18.8 92 0.8 SE 2 6 1 3 1016.0 1015.9 87.8
20/01:30am 20.2 23.2 18.5 90 1.1 CALM 0 0 0 0 1016.0 1015.9 87.8
20/01:00am 20.2 22.0 18.3 89 1.2 NE 6 7 3 4 1016.2 1016.1 87.8
20/12:30am 20.6 22.4 18.7 89 1.2 N 7 11 4 6 1016.7 1016.6 87.8
20/12:00am 21.0 22.1 18.8 87 1.4 N 11 17 6 9 1017.0 1016.9 87.8
 
Date/Time
EST
Temp
°C
App
Temp
°C
Dew
Point
Rel
Hum
%
Delta-T
°C
Wind Press
QNH
hPa
Press
MSL
hPa
Rain
since 9 am
mm
Dir
 
Spd
km/h
Gust
km/h
Spd
kts
Gust
kts
19/11:30pm 21.2 20.5 18.2 83 1.9 N 19 26 10 14 1016.9 1016.8 87.8
19/11:00pm 21.4 20.2 18.4 83 1.9 N 22 32 12 17 1016.8 1016.7 87.8
19/10:30pm 21.6 20.7 19.0 85 1.6 N 22 30 12 16 1017.0 1016.9 87.6
19/10:00pm 21.9 21.7 19.3 85 1.6 N 19 26 10 14 1017.4 1017.3 87.6
19/09:30pm 22.1 22.0 20.0 88 1.3 N 20 28 11 15 1017.8 1017.7 87.6
19/09:00pm 22.2 24.5 20.7 91 1.0 ENE 9 13 5 7 1017.7 1017.6 87.6
19/08:31pm 22.0 23.5 20.6 92 0.9 NNE 13 17 7 9 1017.9 1017.8 87.6
19/08:30pm 21.9 23.5 20.7 93 0.8 NNE 13 17 7 9 1017.9 1017.8 87.6
19/08:00pm 21.8 24.0 20.3 91 1.0 NW 9 13 5 7 1017.5 1017.4 87.6
19/07:30pm 21.6 23.9 19.9 90 1.1 WNW 7 11 4 6 1016.6 1016.5 87.6
19/07:00pm 21.7 25.0 20.7 94 0.6 WSW 4 9 2 5 1016.4 1016.3 87.6
19/06:30pm 21.7 25.3 20.5 93 0.8 N 2 7 1 4 1015.6 1015.5 87.6
19/06:14pm 21.7 23.9 20.5 93 0.8 N 9 13 5 7 1015.4 1015.3 87.6
19/06:04pm 21.6 23.3 20.2 92 0.9 NNW 11 15 6 8 1015.5 1015.4 87.6
19/06:00pm 21.8 23.2 20.4 92 0.9 N 13 17 7 9 1015.6 1015.5 87.6
19/05:48pm 21.8 23.2 20.4 92 0.9 NE 13 19 7 10 1015.3 1015.2 87.6
19/05:30pm 21.3 23.1 20.3 94 0.6 ESE 11 15 6 8 1014.7 1014.6 87.4
19/05:29pm 21.3 23.1 20.3 94 0.6 ESE 11 15 6 8 1014.7 1014.6 87.4
19/05:07pm 20.7 22.5 19.5 93 0.8 WSW 9 13 5 7 1015.7 1015.6 87.2
19/05:00pm 20.6 22.3 19.4 93 0.8 SSE 9 15 5 8 1015.4 1015.3 87.2
19/04:48pm 20.7 18.4 19.4 92 0.8 NE 30 48 16 26 1014.4 1014.3 87.2
19/04:42pm 20.2 16.9 19.2 94 0.6 NE 35 48 19 26 1013.4 1013.3 87.0
19/04:36pm 20.6 17.0 20.1 97 0.3 E 39 46 21 25 1013.9 1013.8 83.6
19/04:30pm 20.7 20.7 20.2 97 0.3 ESE 20 26 11 14 1014.9 1014.8 78.0
19/04:20pm 20.4 20.0 19.4 94 0.6 S 20 32 11 17 1015.4 1015.3 61.4
19/04:00pm 20.5 18.0 18.8 90 1.1 SW 30 54 16 29 1015.8 1015.7 11.4
19/03:57pm 21.4 18.8 17.8 80 2.2 SW 28 43 15 23 1015.4 1015.3 4.8
19/03:30pm 26.1 25.3 21.7 77 2.9 NE 28 39 15 21 1013.4 1013.3 0.0
19/03:00pm 26.1 25.2 21.5 76 3.1 NE 28 35 15 19 1014.0 1013.9 0.0
19/02:30pm 27.0 26.8 21.3 71 3.8 NE 24 35 13 19 1014.1 1014.0 0.0
19/02:00pm 27.8 26.5 20.6 65 4.7 NE 28 35 15 19 1014.4 1014.3 0.0
19/01:30pm 28.8 26.6 20.3 60 5.6 NNE 32 41 17 22 1014.7 1014.6 0.0
19/01:00pm 30.1 29.7 20.9 57 6.1 NE 24 33 13 18 1015.4 1015.3 0.0
19/12:30pm 29.6 29.4 20.5 58 6.0 ENE 22 33 12 18 1015.7 1015.6 0.0
19/12:00pm 30.5 30.5 21.0 57 6.3 E 22 32 12 17 1016.1 1016.0 0.0
19/11:30am 29.5 29.5 20.9 60 5.7 ENE 22 32 12 17 1016.5 1016.4 0.0
19/11:00am 28.9 28.9 20.9 62 5.3 ENE 22 30 12 16 1017.0 1016.9 0.0
19/10:30am 29.2 29.2 20.9 61 5.5 ENE 22 30 12 16 1017.1 1017.0 0.0
19/10:00am 29.1 28.9 21.3 62 5.2 ENE 24 32 13 17 1017.4 1017.3 0.0
19/09:30am 28.4 28.2 21.2 65 4.8 ENE 24 33 13 18 1017.4 1017.3 0.0
19/09:00am 28.4 28.9 21.9 68 4.4 NNE 22 30 12 16 1017.6 1017.5 0.4
19/08:30am 27.8 28.9 21.3 67 4.3 E 17 22 9 12 1017.4 1017.3 0.4
19/08:00am 27.5 28.6 21.3 69 4.1 E 17 22 9 12 1017.2 1017.1 0.4
19/07:30am 27.5 28.6 22.0 72 3.7 ESE 19 22 10 12 1016.9 1016.8 0.4
19/07:00am 26.0 27.4 21.9 78 2.7 ESE 17 20 9 11 1017.0 1016.9 0.4
19/06:38am 25.7 27.4 22.4 82 2.2 ESE 17 20 9 11 1016.9 1016.8 0.4
19/06:30am 25.8 28.1 22.7 83 2.1 ESE 15 19 8 10 1016.7 1016.6 0.4

Other Formats:

Comma delimited format used in spreadsheet applications
http://www.bom.gov.au/fwo/IDQ60801/IDQ60801.94575.axf

JavaScript Object Notation format (JSON) in row-major order
http://www.bom.gov.au/fwo/IDQ60801/IDQ60801.94575.json